createdAt,value
2024-02-16T00:02:04.619Z,9.18
2024-02-16T00:04:32.277Z,9.09
2024-02-16T00:06:59.458Z,9.18
2024-02-16T00:09:26.464Z,9.50
2024-02-16T00:11:54.016Z,9.30
2024-02-16T00:14:21.375Z,9.25
2024-02-16T00:16:49.081Z,9.25
2024-02-16T00:19:16.345Z,8.96
2024-02-16T00:21:43.865Z,9.16
2024-02-16T00:24:11.217Z,9.12
2024-02-16T00:26:40.906Z,9.07
2024-02-16T00:29:08.215Z,9.02
2024-02-16T00:31:35.247Z,9.08
2024-02-16T00:34:02.320Z,9.31
2024-02-16T00:36:31.692Z,9.16
2024-02-16T00:38:59.648Z,9.10
2024-02-16T00:41:27.293Z,9.04
2024-02-16T00:43:54.617Z,9.23
2024-02-16T00:46:24.300Z,9.02
2024-02-16T00:48:52.925Z,9.17
2024-02-16T00:51:20.182Z,8.97
2024-02-16T00:53:47.709Z,9.16
2024-02-16T00:56:14.666Z,9.15
2024-02-16T00:58:44.007Z,9.11
2024-02-16T01:01:13.528Z,9.12
2024-02-16T01:03:41.077Z,9.15
2024-02-16T01:06:10.364Z,9.16
2024-02-16T01:08:37.416Z,9.07
2024-02-16T01:11:04.585Z,8.92
2024-02-16T01:13:31.609Z,9.16
2024-02-16T01:15:58.536Z,9.13
2024-02-16T01:18:26.147Z,8.92
2024-02-16T01:20:53.454Z,8.86
2024-02-16T01:23:21.515Z,8.86
2024-02-16T01:25:49.482Z,8.97
2024-02-16T01:28:16.326Z,9.12
2024-02-16T01:30:43.408Z,9.14
2024-02-16T01:33:10.374Z,9.01
2024-02-16T01:35:37.517Z,9.20
2024-02-16T01:38:04.499Z,9.08
2024-02-16T01:40:31.359Z,9.38
2024-02-16T01:42:58.822Z,9.34
2024-02-16T01:45:25.697Z,9.27
2024-02-16T01:47:54.892Z,9.11
2024-02-16T01:50:23.252Z,8.90
2024-02-16T01:52:51.295Z,9.09
2024-02-16T01:55:18.492Z,8.86
2024-02-16T01:57:49.559Z,8.89
2024-02-16T02:00:19.092Z,9.06
2024-02-16T02:02:47.743Z,9.21
2024-02-16T02:05:16.899Z,9.12
2024-02-16T02:07:44.552Z,9.25
2024-02-16T02:10:14.088Z,9.11
2024-02-16T02:12:41.787Z,9.00
2024-02-16T02:15:10.042Z,9.18
2024-02-16T02:17:37.122Z,9.23
2024-02-16T02:20:05.544Z,9.56
2024-02-16T02:22:32.529Z,9.31
2024-02-16T02:24:59.388Z,9.18
2024-02-16T02:27:26.397Z,9.24
2024-02-16T02:29:53.334Z,8.95
2024-02-16T02:32:20.588Z,8.83
2024-02-16T02:34:47.709Z,8.92
2024-02-16T02:37:14.691Z,8.94
2024-02-16T02:39:41.759Z,8.97
2024-02-16T02:42:09.557Z,9.03
2024-02-16T02:44:36.476Z,9.22
2024-02-16T02:47:03.593Z,9.03
2024-02-16T02:49:30.767Z,9.18
2024-02-16T02:51:57.669Z,9.39
2024-02-16T02:54:24.565Z,9.24
2024-02-16T02:56:51.529Z,9.44
2024-02-16T02:59:18.496Z,9.36
2024-02-16T03:01:45.956Z,9.32
2024-02-16T03:04:13.075Z,9.04
2024-02-16T03:06:40.080Z,9.31
2024-02-16T03:09:08.032Z,9.06
2024-02-16T03:11:35.073Z,8.94
2024-02-16T03:14:02.006Z,8.85
2024-02-16T03:16:28.841Z,9.01
2024-02-16T03:18:56.614Z,9.22
2024-02-16T03:21:23.647Z,9.22
2024-02-16T03:23:50.576Z,8.94
2024-02-16T03:26:19.988Z,8.89
2024-02-16T03:28:50.754Z,9.16
2024-02-16T03:31:23.264Z,9.38
2024-02-16T03:33:52.653Z,9.36
2024-02-16T03:36:20.973Z,9.39
2024-02-16T03:38:52.495Z,9.25
2024-02-16T03:41:22.174Z,9.14
2024-02-16T03:43:49.113Z,9.14
2024-02-16T03:46:16.082Z,9.05
2024-02-16T03:48:43.272Z,9.07
2024-02-16T03:51:10.526Z,9.10
2024-02-16T03:53:37.497Z,9.11
2024-02-16T03:56:04.660Z,9.32
2024-02-16T03:58:32.599Z,9.17
2024-02-16T04:00:59.859Z,8.91
2024-02-16T04:03:26.872Z,9.02
2024-02-16T04:05:54.389Z,8.92
2024-02-16T04:08:21.501Z,9.01
2024-02-16T04:10:48.647Z,9.13
2024-02-16T04:13:15.744Z,9.09
2024-02-16T04:15:42.843Z,9.06
2024-02-16T04:18:10.714Z,9.04
2024-02-16T04:20:39.261Z,8.92
2024-02-16T04:23:06.197Z,8.99
2024-02-16T04:25:33.142Z,8.79
2024-02-16T04:28:00.355Z,8.81
2024-02-16T04:30:27.480Z,8.95
2024-02-16T04:32:54.678Z,8.87
2024-02-16T04:35:21.718Z,9.04
2024-02-16T04:37:48.576Z,9.01
2024-02-16T04:40:16.614Z,8.82
2024-02-16T04:42:43.492Z,9.02
2024-02-16T04:45:14.781Z,9.25
2024-02-16T04:47:41.887Z,9.14
2024-02-16T04:50:12.531Z,8.92
2024-02-16T04:52:42.290Z,8.80
2024-02-16T04:55:09.347Z,9.03
2024-02-16T04:57:37.666Z,8.83
2024-02-16T05:00:05.429Z,8.80
2024-02-16T05:02:32.363Z,9.02
2024-02-16T05:05:02.264Z,8.74
2024-02-16T05:07:32.801Z,8.99
2024-02-16T05:10:00.180Z,8.92
2024-02-16T05:12:27.933Z,8.89
2024-02-16T05:14:55.473Z,8.89
2024-02-16T05:17:23.870Z,8.98
2024-02-16T05:19:51.276Z,8.84
2024-02-16T05:22:23.009Z,8.88
2024-02-16T05:24:50.090Z,9.01
2024-02-16T05:27:17.088Z,8.73
2024-02-16T05:29:43.979Z,8.92
2024-02-16T05:32:11.846Z,9.06
2024-02-16T05:34:39.151Z,8.95
2024-02-16T05:37:10.494Z,8.92
2024-02-16T05:39:54.674Z,8.85
2024-02-16T05:42:24.503Z,8.79
2024-02-16T05:44:52.557Z,8.79
2024-02-16T05:47:20.552Z,8.82
2024-02-16T05:49:48.103Z,8.94
2024-02-16T05:52:24.789Z,8.96
2024-02-16T05:54:51.787Z,8.89
2024-02-16T05:57:19.630Z,8.51
2024-02-16T05:59:47.151Z,8.66
2024-02-16T06:02:15.567Z,8.69
2024-02-16T06:04:42.997Z,8.95
2024-02-16T06:07:10.161Z,8.99
2024-02-16T06:09:38.728Z,8.85
2024-02-16T06:12:08.507Z,8.98
2024-02-16T06:14:35.948Z,8.96
2024-02-16T06:17:02.961Z,8.83
2024-02-16T06:19:30.533Z,8.80
2024-02-16T06:21:57.688Z,8.83
2024-02-16T06:24:24.972Z,8.83
2024-02-16T06:26:57.553Z,8.81
2024-02-16T06:29:25.448Z,8.82
2024-02-16T06:31:53.349Z,8.96
2024-02-16T06:34:20.748Z,8.82
2024-02-16T06:36:47.960Z,8.75
2024-02-16T06:39:18.296Z,8.80
2024-02-16T06:41:49.164Z,8.85
2024-02-16T06:44:17.275Z,8.97
2024-02-16T06:46:52.498Z,9.09
2024-02-16T06:49:33.591Z,8.93
2024-02-16T06:55:21.634Z,8.91
2024-02-16T06:57:54.704Z,8.98
2024-02-16T07:00:48.417Z,9.21
2024-02-16T07:03:35.785Z,9.25
2024-02-16T07:06:04.341Z,9.16
2024-02-16T07:08:40.500Z,9.48
2024-02-16T07:11:12.758Z,9.56
2024-02-16T07:13:46.627Z,9.37
2024-02-16T07:16:23.371Z,9.30
2024-02-16T07:21:34.846Z,9.39
2024-02-16T07:24:16.651Z,9.54
2024-02-16T07:27:11.584Z,9.36
2024-02-16T07:29:42.542Z,9.55
2024-02-16T07:32:25.107Z,9.47
2024-02-16T07:35:10.282Z,9.49
2024-02-16T07:37:43.472Z,9.69
2024-02-16T07:40:10.660Z,9.75
2024-02-16T07:42:45.934Z,9.86
2024-02-16T07:45:13.300Z,9.89
2024-02-16T07:47:43.059Z,9.80
2024-02-16T07:50:11.290Z,10.03
2024-02-16T07:52:39.697Z,9.53
2024-02-16T07:55:09.972Z,9.74
2024-02-16T07:57:37.574Z,10.02
2024-02-16T08:00:08.434Z,10.24
2024-02-16T08:02:35.615Z,10.33
2024-02-16T08:05:02.644Z,10.34
2024-02-16T08:07:32.109Z,10.61
2024-02-16T08:09:59.244Z,10.44
2024-02-16T08:12:28.451Z,10.55
2024-02-16T08:14:57.260Z,10.82
2024-02-16T08:17:25.555Z,11.02
2024-02-16T08:19:56.581Z,11.06
2024-02-16T08:22:24.003Z,11.07
2024-02-16T08:24:51.380Z,11.15
2024-02-16T08:27:18.574Z,11.00
2024-02-16T08:29:46.073Z,10.30
2024-02-16T08:32:14.576Z,10.21
2024-02-16T08:34:41.708Z,10.53
2024-02-16T08:37:09.212Z,10.78
2024-02-16T08:39:39.293Z,10.51
2024-02-16T08:42:06.540Z,10.63
2024-02-16T08:44:33.580Z,10.26
2024-02-16T08:47:00.562Z,10.32
2024-02-16T08:49:28.311Z,10.50
2024-02-16T08:51:55.362Z,10.71
2024-02-16T08:54:22.333Z,10.97
2024-02-16T08:56:49.466Z,11.06
2024-02-16T08:59:16.418Z,10.99
2024-02-16T09:01:44.355Z,10.54
2024-02-16T09:04:11.701Z,10.52
2024-02-16T09:06:40.344Z,10.70
2024-02-16T09:09:13.302Z,10.76
2024-02-16T09:11:40.530Z,10.77
2024-02-16T09:14:07.477Z,11.02
2024-02-16T09:16:34.329Z,10.82
2024-02-16T09:19:01.504Z,10.67
2024-02-16T09:21:30.936Z,10.81
2024-02-16T09:24:02.804Z,11.12
2024-02-16T09:26:34.831Z,11.42
2024-02-16T09:29:02.242Z,11.94
2024-02-16T09:31:29.714Z,12.33
2024-02-16T09:33:56.749Z,12.38
2024-02-16T09:36:24.546Z,11.94
2024-02-16T09:38:52.094Z,12.73
2024-02-16T09:41:19.941Z,13.32
2024-02-16T09:43:46.968Z,13.69
2024-02-16T09:46:15.826Z,13.86
2024-02-16T09:48:49.637Z,13.02
2024-02-16T09:51:17.474Z,13.16
2024-02-16T09:53:44.490Z,12.42
2024-02-16T09:56:11.429Z,12.61
2024-02-16T09:58:38.364Z,12.39
2024-02-16T10:01:05.616Z,11.73
2024-02-16T10:03:36.330Z,11.97
2024-02-16T10:06:09.025Z,12.06
2024-02-16T10:08:48.325Z,12.06
2024-02-16T10:11:16.288Z,11.47
2024-02-16T10:13:43.220Z,11.23
2024-02-16T10:16:13.388Z,11.41
2024-02-16T10:18:40.577Z,11.37
2024-02-16T10:21:08.883Z,11.56
2024-02-16T10:23:43.550Z,11.70
2024-02-16T10:26:11.256Z,11.82
2024-02-16T10:28:39.065Z,11.51
2024-02-16T10:31:06.796Z,11.79
2024-02-16T10:33:35.192Z,12.49
2024-02-16T10:36:04.529Z,12.53
2024-02-16T10:38:32.275Z,12.62
2024-02-16T10:41:02.612Z,12.58
2024-02-16T10:43:31.350Z,12.57
2024-02-16T10:45:58.374Z,12.56
2024-02-16T10:48:25.488Z,12.56
2024-02-16T10:50:54.174Z,12.25
2024-02-16T10:53:26.683Z,12.29
2024-02-16T10:55:53.698Z,12.78
2024-02-16T10:58:21.514Z,13.01
2024-02-16T11:00:56.287Z,13.73
2024-02-16T11:03:25.802Z,13.79
2024-02-16T11:05:54.346Z,14.07
2024-02-16T11:08:29.576Z,14.75
2024-02-16T11:11:02.061Z,15.02
2024-02-16T11:13:33.135Z,14.27
2024-02-16T11:16:02.184Z,14.87
2024-02-16T11:18:33.428Z,14.35
2024-02-16T11:21:05.034Z,14.88
2024-02-16T11:23:32.970Z,15.05
2024-02-16T11:26:10.226Z,15.17
2024-02-16T11:28:37.189Z,14.10
2024-02-16T11:31:04.993Z,14.64
2024-02-16T11:33:32.772Z,14.01
2024-02-16T11:36:01.613Z,13.66
2024-02-16T11:38:28.786Z,13.52
2024-02-16T11:41:00.718Z,13.27
2024-02-16T11:43:27.855Z,14.01
2024-02-16T11:45:55.017Z,14.72
2024-02-16T11:48:29.383Z,14.64
2024-02-16T11:51:04.808Z,14.50
2024-02-16T11:53:32.453Z,15.10
2024-02-16T11:55:59.607Z,14.03
2024-02-16T11:58:27.225Z,13.78
2024-02-16T12:00:54.454Z,14.44
2024-02-16T12:03:26.910Z,15.13
2024-02-16T12:05:57.715Z,15.26
2024-02-16T12:08:25.658Z,13.97
2024-02-16T12:10:53.333Z,13.73
2024-02-16T12:13:21.714Z,13.57
2024-02-16T12:15:53.148Z,14.05
2024-02-16T12:18:27.195Z,14.44
2024-02-16T12:21:07.027Z,14.72
2024-02-16T12:23:34.893Z,14.32
2024-02-16T12:26:02.920Z,14.30
2024-02-16T12:28:34.083Z,13.68
2024-02-16T12:31:04.095Z,13.27
2024-02-16T12:33:31.751Z,13.69
2024-02-16T12:35:58.911Z,13.51
2024-02-16T12:38:25.879Z,13.65
2024-02-16T12:40:53.055Z,13.61
2024-02-16T12:43:21.369Z,12.99
2024-02-16T12:45:48.589Z,13.11
2024-02-16T12:48:16.306Z,12.32
2024-02-16T12:50:43.535Z,12.40
2024-02-16T12:53:13.646Z,12.77
2024-02-16T12:55:40.611Z,12.80
2024-02-16T12:58:07.680Z,12.84
2024-02-16T13:00:34.894Z,13.09
2024-02-16T13:03:01.831Z,12.60
2024-02-16T13:05:29.062Z,12.69
2024-02-16T13:07:56.127Z,12.80
2024-02-16T13:10:23.251Z,12.48
2024-02-16T13:12:50.238Z,12.00
2024-02-16T13:15:26.695Z,12.42
2024-02-16T13:17:56.228Z,12.63
2024-02-16T13:20:23.721Z,12.32
2024-02-16T13:22:50.843Z,12.85
2024-02-16T13:25:17.947Z,12.07
2024-02-16T13:27:44.947Z,11.82
2024-02-16T13:30:12.357Z,12.15
2024-02-16T13:32:41.549Z,11.94
2024-02-16T13:35:09.472Z,11.52
2024-02-16T13:37:36.603Z,11.29
2024-02-16T13:40:08.080Z,10.90
2024-02-16T13:42:35.283Z,11.14
2024-02-16T13:45:02.548Z,11.54
2024-02-16T13:47:29.533Z,11.76
2024-02-16T13:49:58.281Z,11.72
2024-02-16T13:52:25.889Z,11.29
2024-02-16T13:54:52.957Z,11.56
2024-02-16T13:57:20.552Z,12.09
2024-02-16T13:59:47.820Z,12.32
2024-02-16T14:02:14.907Z,11.33
2024-02-16T14:04:42.607Z,10.72
2024-02-16T14:07:11.278Z,10.18
2024-02-16T14:09:38.586Z,10.25
2024-02-16T14:12:05.919Z,10.30
2024-02-16T14:14:37.839Z,10.78
2024-02-16T14:17:06.273Z,10.67
2024-02-16T14:19:35.398Z,10.57
2024-02-16T14:22:02.804Z,10.44
2024-02-16T14:24:29.885Z,10.71
2024-02-16T14:26:56.927Z,10.75
2024-02-16T14:29:23.998Z,11.04
2024-02-16T14:31:51.007Z,11.30
2024-02-16T14:34:18.328Z,11.17
2024-02-16T14:36:45.547Z,10.20
2024-02-16T14:39:13.306Z,10.24
2024-02-16T14:41:40.561Z,10.29
2024-02-16T14:44:07.584Z,10.03
2024-02-16T14:46:35.523Z,10.10
2024-02-16T14:49:03.278Z,10.14
2024-02-16T14:51:30.671Z,10.57
2024-02-16T14:53:57.551Z,10.46
2024-02-16T14:56:24.996Z,10.63
2024-02-16T14:58:52.242Z,10.46
2024-02-16T15:01:19.418Z,10.21
2024-02-16T15:03:46.563Z,10.27
2024-02-16T15:06:13.667Z,10.15
2024-02-16T15:08:40.626Z,10.18
2024-02-16T15:11:07.545Z,10.33
2024-02-16T15:13:36.459Z,10.53
2024-02-16T15:16:03.379Z,10.48
2024-02-16T15:18:30.545Z,10.17
2024-02-16T15:20:57.661Z,10.23
2024-02-16T15:23:24.887Z,10.14
2024-02-16T15:25:51.726Z,10.32
2024-02-16T15:28:18.891Z,10.10
2024-02-16T15:30:46.008Z,10.06
2024-02-16T15:33:12.995Z,9.75
2024-02-16T15:35:39.910Z,9.39
2024-02-16T15:38:07.373Z,9.89
2024-02-16T15:40:34.321Z,10.03
2024-02-16T15:43:02.969Z,9.70
2024-02-16T15:45:30.248Z,9.52
2024-02-16T15:47:57.233Z,9.57
2024-02-16T15:50:27.157Z,9.72
2024-02-16T15:52:54.389Z,9.73
2024-02-16T15:55:21.443Z,9.77
2024-02-16T15:57:48.384Z,9.51
2024-02-16T16:00:16.126Z,9.43
2024-02-16T16:02:43.021Z,9.35
2024-02-16T16:05:10.355Z,9.14
2024-02-16T16:07:37.245Z,9.15
2024-02-16T16:10:04.429Z,9.09
2024-02-16T16:12:31.442Z,9.14
2024-02-16T16:14:58.380Z,9.19
2024-02-16T16:17:25.402Z,9.15
2024-02-16T16:19:52.386Z,9.15
2024-02-16T16:22:19.335Z,8.94
2024-02-16T16:24:46.298Z,8.78
2024-02-16T16:27:13.788Z,9.02
2024-02-16T16:29:40.735Z,9.20
2024-02-16T16:32:07.798Z,9.29
2024-02-16T16:34:34.787Z,9.32
2024-02-16T16:37:01.895Z,9.30
2024-02-16T16:39:28.798Z,9.23
2024-02-16T16:41:56.156Z,9.01
2024-02-16T16:44:23.937Z,9.18
2024-02-16T16:46:50.974Z,9.11
2024-02-16T16:49:17.946Z,9.15
2024-02-16T16:51:44.983Z,9.35
2024-02-16T16:54:11.989Z,9.35
2024-02-16T16:56:39.230Z,9.60
2024-02-16T16:59:06.251Z,9.48
2024-02-16T17:01:33.322Z,9.44
2024-02-16T17:04:01.281Z,9.40
2024-02-16T17:06:29.052Z,9.51
2024-02-16T17:08:57.841Z,9.55
2024-02-16T17:11:24.866Z,9.58
2024-02-16T17:13:51.881Z,9.49
2024-02-16T17:16:18.762Z,9.17
2024-02-16T17:18:45.776Z,9.09
2024-02-16T17:21:13.894Z,9.18
2024-02-16T17:23:41.607Z,9.32
2024-02-16T17:26:08.530Z,9.31
2024-02-16T17:28:37.945Z,9.06
2024-02-16T17:31:04.941Z,8.94
2024-02-16T17:33:32.414Z,8.95
2024-02-16T17:35:59.517Z,8.76
2024-02-16T17:38:26.460Z,9.03
2024-02-16T17:40:53.365Z,9.15
2024-02-16T17:43:20.212Z,9.20
2024-02-16T17:45:47.266Z,9.01
2024-02-16T17:48:14.409Z,8.68
2024-02-16T17:50:41.817Z,8.81
2024-02-16T17:53:08.771Z,8.81
2024-02-16T17:55:35.653Z,8.98
2024-02-16T17:58:03.847Z,9.00
2024-02-16T18:00:31.232Z,9.11
2024-02-16T18:02:58.243Z,9.15
2024-02-16T18:05:25.266Z,8.92
2024-02-16T18:07:52.864Z,9.01
2024-02-16T18:10:21.881Z,9.09
2024-02-16T18:12:50.121Z,9.01
2024-02-16T18:15:17.967Z,9.10
2024-02-16T18:17:44.920Z,9.06
2024-02-16T18:20:13.689Z,9.14
2024-02-16T18:22:41.575Z,9.13
2024-02-16T18:25:09.030Z,9.25
2024-02-16T18:27:36.079Z,9.30
2024-02-16T18:30:03.174Z,9.31
2024-02-16T18:32:30.496Z,9.29
2024-02-16T18:34:57.765Z,9.27
2024-02-16T18:37:24.695Z,9.02
2024-02-16T18:39:51.683Z,9.26
2024-02-16T18:42:18.688Z,9.29
2024-02-16T18:44:45.717Z,9.20
2024-02-16T18:47:12.626Z,9.34
2024-02-16T18:49:39.627Z,9.47
2024-02-16T18:52:06.688Z,9.65
2024-02-16T18:54:33.699Z,9.75
2024-02-16T18:57:00.721Z,9.95
2024-02-16T18:59:27.677Z,9.81
2024-02-16T19:02:02.157Z,9.56
2024-02-16T19:04:32.189Z,9.42
2024-02-16T19:06:59.329Z,9.11
2024-02-16T19:09:26.452Z,9.35
2024-02-16T19:11:53.349Z,9.23
2024-02-16T19:14:21.182Z,9.17
2024-02-16T19:16:48.042Z,9.26
2024-02-16T19:19:15.666Z,9.36
2024-02-16T19:21:44.070Z,9.00
2024-02-16T19:24:11.387Z,8.95
2024-02-16T19:26:38.412Z,9.11
2024-02-16T19:29:05.303Z,9.00
2024-02-16T19:31:34.438Z,8.94
2024-02-16T19:34:02.227Z,9.05
2024-02-16T19:36:29.766Z,8.98
2024-02-16T19:38:59.537Z,8.74
2024-02-16T19:41:26.431Z,8.74
2024-02-16T19:43:53.476Z,8.74
2024-02-16T19:46:20.659Z,8.51
2024-02-16T19:48:48.352Z,8.59
2024-02-16T19:51:15.523Z,8.71
2024-02-16T19:53:42.425Z,8.90
2024-02-16T19:56:09.372Z,8.95
2024-02-16T19:58:36.289Z,8.62
2024-02-16T20:01:03.726Z,8.57
2024-02-16T20:03:30.780Z,8.68
2024-02-16T20:05:57.998Z,8.65
2024-02-16T20:08:24.964Z,8.60
2024-02-16T20:10:52.861Z,8.56
2024-02-16T20:13:19.862Z,8.77
2024-02-16T20:15:46.881Z,8.85
2024-02-16T20:18:18.928Z,8.80
2024-02-16T20:20:47.183Z,8.91
2024-02-16T20:23:14.222Z,8.81
2024-02-16T20:25:41.088Z,8.91
2024-02-16T20:28:08.010Z,8.64
2024-02-16T20:30:35.217Z,8.47
2024-02-16T20:33:06.307Z,8.23
2024-02-16T20:35:33.248Z,8.16
2024-02-16T20:38:00.957Z,8.24
2024-02-16T20:40:28.269Z,7.95
2024-02-16T20:42:55.190Z,7.64
2024-02-16T20:45:22.149Z,7.57
2024-02-16T20:47:49.096Z,7.82
2024-02-16T20:50:17.662Z,7.83
2024-02-16T20:52:45.457Z,7.95
2024-02-16T20:55:12.491Z,7.93
2024-02-16T20:57:39.513Z,7.82
2024-02-16T21:00:12.800Z,7.95
2024-02-16T21:02:40.018Z,8.09
2024-02-16T21:05:07.472Z,8.17
2024-02-16T21:07:34.412Z,8.12
2024-02-16T21:10:01.269Z,8.04
2024-02-16T21:12:29.816Z,7.87
2024-02-16T21:14:56.890Z,7.72
2024-02-16T21:17:23.765Z,7.78
2024-02-16T21:19:50.724Z,7.73
2024-02-16T21:22:17.643Z,7.60
2024-02-16T21:24:44.614Z,7.49
2024-02-16T21:27:11.541Z,7.53
2024-02-16T21:29:41.321Z,7.69
2024-02-16T21:32:08.263Z,7.43
2024-02-16T21:34:35.306Z,7.42
2024-02-16T21:37:05.077Z,7.49
2024-02-16T21:39:32.270Z,6.97
2024-02-16T21:41:59.275Z,7.23
2024-02-16T21:44:26.763Z,7.11
2024-02-16T21:46:53.677Z,7.01
2024-02-16T21:49:22.507Z,7.12
2024-02-16T21:51:49.652Z,7.29
2024-02-16T21:54:16.679Z,7.26
2024-02-16T21:56:43.601Z,7.13
2024-02-16T21:59:10.800Z,7.12
2024-02-16T22:01:37.990Z,7.13
2024-02-16T22:04:05.121Z,7.13
2024-02-16T22:06:32.237Z,7.16
2024-02-16T22:08:59.460Z,7.22
2024-02-16T22:11:27.737Z,6.92
2024-02-16T22:13:55.047Z,6.92
2024-02-16T22:16:22.195Z,6.80
2024-02-16T22:18:50.638Z,6.71
2024-02-16T22:21:20.140Z,6.96
2024-02-16T22:23:52.384Z,6.92
2024-02-16T22:26:19.225Z,6.68
2024-02-16T22:28:46.063Z,6.81
2024-02-16T22:31:12.959Z,6.82
2024-02-16T22:33:39.921Z,6.56
2024-02-16T22:36:07.460Z,6.64
2024-02-16T22:38:34.620Z,6.72
2024-02-16T22:41:01.893Z,6.73
2024-02-16T22:43:29.297Z,6.71
2024-02-16T22:45:57.062Z,6.60
2024-02-16T22:48:24.437Z,6.57
2024-02-16T22:50:51.577Z,6.71
2024-02-16T22:53:18.621Z,6.66
2024-02-16T22:55:47.549Z,6.42
2024-02-16T22:58:14.623Z,6.27
2024-02-16T23:00:42.534Z,6.41
2024-02-16T23:03:11.914Z,6.30
2024-02-16T23:05:39.842Z,6.36
2024-02-16T23:08:08.364Z,6.35
2024-02-16T23:10:36.873Z,6.55
2024-02-16T23:13:04.244Z,6.57
2024-02-16T23:15:34.661Z,6.68
2024-02-16T23:18:03.381Z,6.51
2024-02-16T23:20:31.610Z,6.47
2024-02-16T23:23:16.237Z,6.64
2024-02-16T23:25:44.559Z,6.59
2024-02-16T23:28:16.434Z,6.68
2024-02-16T23:30:44.431Z,6.69
2024-02-16T23:33:12.549Z,6.68
2024-02-16T23:35:40.216Z,6.73
2024-02-16T23:38:07.168Z,6.67
2024-02-16T23:40:34.058Z,6.74
2024-02-16T23:43:00.943Z,6.72
2024-02-16T23:45:33.916Z,6.80
2024-02-16T23:48:01.187Z,6.90
2024-02-16T23:50:31.028Z,6.81
2024-02-16T23:52:58.809Z,6.78
2024-02-16T23:55:25.984Z,6.63
2024-02-16T23:57:55.893Z,6.63
